createdAt,value
2022-08-04T00:01:42.988Z,17.90
2022-08-04T00:04:33.070Z,17.80
2022-08-04T00:07:17.273Z,17.80
2022-08-04T00:09:53.241Z,17.80
2022-08-04T00:12:22.189Z,17.70
2022-08-04T00:15:00.087Z,17.70
2022-08-04T00:17:38.466Z,17.70
2022-08-04T00:20:07.125Z,17.60
2022-08-04T00:22:35.578Z,17.60
2022-08-04T00:25:05.220Z,17.50
2022-08-04T00:27:32.751Z,17.50
2022-08-04T00:30:04.462Z,17.50
2022-08-04T00:32:34.658Z,17.50
2022-08-04T00:35:02.188Z,17.40
2022-08-04T00:37:29.106Z,17.40
2022-08-04T00:39:56.939Z,17.30
2022-08-04T00:42:59.073Z,17.30
2022-08-04T00:46:15.661Z,17.40
2022-08-04T00:48:56.005Z,17.30
2022-08-04T00:52:32.672Z,17.30
2022-08-04T00:54:54.186Z,17.30
2022-08-04T00:57:45.061Z,17.20
2022-08-04T01:00:15.090Z,17.20
2022-08-04T01:03:14.292Z,17.10
2022-08-04T01:05:59.546Z,17.10
2022-08-04T01:08:54.509Z,17.10
2022-08-04T01:11:57.408Z,17.00
2022-08-04T01:15:00.121Z,16.90
2022-08-04T01:17:36.039Z,16.90
2022-08-04T01:20:08.821Z,16.90
2022-08-04T01:23:04.317Z,16.90
2022-08-04T01:26:01.969Z,16.80
2022-08-04T01:29:09.787Z,16.80
2022-08-04T01:31:39.545Z,16.80
2022-08-04T01:34:10.125Z,16.70
2022-08-04T01:36:38.838Z,16.70
2022-08-04T01:39:24.898Z,16.60
2022-08-04T01:41:58.449Z,16.50
2022-08-04T01:44:28.777Z,16.40
2022-08-04T01:46:55.539Z,16.40
2022-08-04T01:49:23.163Z,16.30
2022-08-04T01:51:52.239Z,16.30
2022-08-04T01:54:19.879Z,16.30
2022-08-04T01:56:49.329Z,16.30
2022-08-04T01:59:19.589Z,16.30
2022-08-04T02:01:47.454Z,16.40
2022-08-04T02:04:20.425Z,16.40
2022-08-04T02:07:11.460Z,16.40
2022-08-04T02:09:54.410Z,16.30
2022-08-04T02:12:51.986Z,16.30
2022-08-04T02:15:30.568Z,16.30
2022-08-04T02:18:24.857Z,16.20
2022-08-04T02:21:00.544Z,16.10
2022-08-04T02:23:39.367Z,16.10
2022-08-04T02:26:27.200Z,16.10
2022-08-04T02:29:08.859Z,16.00
2022-08-04T02:31:39.729Z,16.00
2022-08-04T02:34:12.574Z,16.00
2022-08-04T02:36:41.647Z,16.00
2022-08-04T02:39:10.621Z,16.00
2022-08-04T02:41:38.436Z,16.00
2022-08-04T02:44:07.351Z,15.90
2022-08-04T02:46:36.125Z,15.90
2022-08-04T02:49:06.166Z,15.80
2022-08-04T02:51:40.429Z,15.80
2022-08-04T02:54:07.706Z,15.80
2022-08-04T02:56:37.457Z,15.70
2022-08-04T02:59:10.570Z,15.80
2022-08-04T03:01:38.281Z,15.70
2022-08-04T03:04:46.110Z,15.60
2022-08-04T03:07:47.286Z,15.60
2022-08-04T03:10:30.674Z,15.60
2022-08-04T03:13:16.111Z,15.60
2022-08-04T03:16:04.693Z,15.60
2022-08-04T03:18:53.102Z,15.60
2022-08-04T03:21:39.824Z,15.50
2022-08-04T03:24:40.462Z,15.50
2022-08-04T03:27:25.954Z,15.50
2022-08-04T03:30:01.481Z,15.50
2022-08-04T03:32:49.922Z,15.50
2022-08-04T03:35:36.627Z,15.50
2022-08-04T03:38:22.415Z,15.40
2022-08-04T03:41:17.157Z,15.40
2022-08-04T03:44:43.746Z,15.40
2022-08-04T03:47:29.075Z,15.40
2022-08-04T03:50:29.658Z,15.40
2022-08-04T03:53:18.475Z,15.30
2022-08-04T03:56:07.484Z,15.40
2022-08-04T03:59:08.800Z,15.40
2022-08-04T04:02:02.150Z,15.40
2022-08-04T04:05:07.983Z,15.50
2022-08-04T04:07:58.014Z,15.50
2022-08-04T04:10:52.709Z,15.50
2022-08-04T04:14:05.128Z,15.40
2022-08-04T04:16:45.058Z,15.50
2022-08-04T04:19:23.957Z,15.60
2022-08-04T04:22:09.603Z,15.60
2022-08-04T04:25:04.692Z,15.70
2022-08-04T04:27:37.541Z,15.70
2022-08-04T04:30:06.771Z,15.70
2022-08-04T04:32:42.339Z,15.70
2022-08-04T04:35:21.316Z,15.70
2022-08-04T04:38:06.255Z,15.70
2022-08-04T04:40:57.811Z,15.80
2022-08-04T04:43:51.634Z,15.90
2022-08-04T04:46:41.787Z,16.00
2022-08-04T04:49:20.979Z,16.20
2022-08-04T04:52:09.907Z,16.40
2022-08-04T04:55:10.617Z,16.60
2022-08-04T04:57:54.265Z,16.70
2022-08-04T05:00:25.200Z,16.80
2022-08-04T05:03:28.683Z,17.00
2022-08-04T05:06:04.595Z,17.00
2022-08-04T05:08:46.774Z,17.10
2022-08-04T05:11:42.687Z,17.00
2022-08-04T05:14:36.803Z,17.10
2022-08-04T05:17:28.171Z,17.00
2022-08-04T05:20:07.621Z,17.10
2022-08-04T05:22:40.202Z,17.10
2022-08-04T05:25:14.597Z,17.00
2022-08-04T05:27:50.469Z,17.10
2022-08-04T05:30:18.916Z,17.10
2022-08-04T05:32:54.912Z,17.10
2022-08-04T05:35:50.451Z,17.30
2022-08-04T05:38:26.801Z,17.40
2022-08-04T05:40:55.567Z,17.50
2022-08-04T05:43:23.864Z,17.60
2022-08-04T05:45:52.903Z,17.70
2022-08-04T05:48:19.794Z,17.70
2022-08-04T05:50:47.473Z,17.80
2022-08-04T05:53:16.771Z,18.00
2022-08-04T05:55:48.808Z,18.00
2022-08-04T05:58:30.963Z,18.30
2022-08-04T06:01:02.193Z,18.40
2022-08-04T06:03:33.076Z,18.60
2022-08-04T06:06:02.158Z,18.70
2022-08-04T06:08:30.166Z,18.90
2022-08-04T06:11:00.191Z,19.00
2022-08-04T06:13:48.609Z,19.20
2022-08-04T06:16:29.755Z,19.30
2022-08-04T06:19:59.747Z,19.50
2022-08-04T06:21:52.416Z,19.70
2022-08-04T06:24:23.630Z,19.90
2022-08-04T06:26:51.545Z,20.10
2022-08-04T06:29:26.812Z,20.30
2022-08-04T06:32:30.161Z,20.50
2022-08-04T06:34:45.614Z,20.60
2022-08-04T06:37:12.769Z,21.00
2022-08-04T06:40:01.767Z,21.20
2022-08-04T06:42:29.781Z,21.40
2022-08-04T06:44:59.048Z,21.60
2022-08-04T06:47:27.145Z,21.70
2022-08-04T06:51:25.817Z,21.90
2022-08-04T06:52:44.941Z,22.20
2022-08-04T06:55:13.413Z,22.40
2022-08-04T06:57:41.187Z,22.60
2022-08-04T07:00:12.666Z,22.70
2022-08-04T07:02:48.976Z,22.90
2022-08-04T07:05:16.663Z,23.10
2022-08-04T07:07:57.543Z,23.30
2022-08-04T07:10:29.254Z,23.50
2022-08-04T07:13:00.567Z,23.70
2022-08-04T07:15:28.992Z,23.90
2022-08-04T07:18:01.270Z,24.10
2022-08-04T07:20:33.984Z,24.30
2022-08-04T07:23:06.505Z,24.60
2022-08-04T07:25:58.529Z,24.80
2022-08-04T07:28:26.712Z,25.00
2022-08-04T07:30:54.672Z,25.40
2022-08-04T07:33:22.146Z,26.20
2022-08-04T07:36:10.462Z,28.30
2022-08-04T07:38:51.106Z,30.40
2022-08-04T07:41:42.513Z,33.00
2022-08-04T07:44:13.295Z,34.90
2022-08-04T07:46:40.482Z,36.40
2022-08-04T07:49:07.837Z,37.60
2022-08-04T07:51:36.878Z,38.20
2022-08-04T07:54:05.452Z,38.90
2022-08-04T07:56:33.960Z,39.20
2022-08-04T07:59:01.205Z,40.00
2022-08-04T08:01:28.386Z,40.90
2022-08-04T08:03:56.876Z,40.40
2022-08-04T08:06:32.400Z,41.40
2022-08-04T08:09:13.833Z,41.20
2022-08-04T08:12:38.168Z,41.20
2022-08-04T08:14:30.739Z,41.80
2022-08-04T08:17:01.596Z,41.90
2022-08-04T08:19:29.925Z,42.80
2022-08-04T08:21:59.136Z,42.90
2022-08-04T08:24:28.016Z,42.80
2022-08-04T08:26:56.005Z,42.80
2022-08-04T08:29:23.343Z,42.90
2022-08-04T08:31:57.403Z,43.50
2022-08-04T08:34:30.821Z,43.70
2022-08-04T08:37:06.775Z,43.70
2022-08-04T08:39:55.391Z,43.30
2022-08-04T08:42:30.951Z,44.00
2022-08-04T08:45:44.851Z,44.20
2022-08-04T08:48:17.781Z,44.20
2022-08-04T08:50:56.516Z,43.20
2022-08-04T08:53:51.040Z,43.20
2022-08-04T08:56:31.886Z,43.10
2022-08-04T08:59:15.187Z,43.60
2022-08-04T09:02:17.602Z,43.50
2022-08-04T09:04:56.244Z,44.00
2022-08-04T09:07:51.222Z,44.40
2022-08-04T09:10:41.052Z,44.20
2022-08-04T09:13:27.731Z,44.10
2022-08-04T09:16:02.517Z,43.70
2022-08-04T09:18:38.280Z,44.00
2022-08-04T09:21:22.487Z,43.30
2022-08-04T09:23:56.530Z,42.90
2022-08-04T09:26:45.694Z,43.30
2022-08-04T09:29:36.346Z,44.00
2022-08-04T09:32:21.297Z,43.90
2022-08-04T09:35:04.346Z,43.90
2022-08-04T09:37:45.839Z,44.60
2022-08-04T09:40:35.597Z,44.50
2022-08-04T09:43:58.978Z,44.80
2022-08-04T09:47:03.636Z,45.00
2022-08-04T09:49:38.572Z,45.60
2022-08-04T09:52:17.268Z,44.60
2022-08-04T09:54:47.136Z,44.60
2022-08-04T09:57:21.436Z,44.80
2022-08-04T10:00:02.640Z,44.60
2022-08-04T10:02:35.807Z,44.50
2022-08-04T10:05:07.003Z,44.90
2022-08-04T10:07:36.688Z,44.20
2022-08-04T10:10:23.903Z,44.80
2022-08-04T10:12:53.431Z,45.00
2022-08-04T10:15:40.007Z,45.20
2022-08-04T10:18:21.915Z,45.50
2022-08-04T10:21:01.437Z,45.50
2022-08-04T10:23:55.669Z,45.50
2022-08-04T10:26:48.289Z,46.00
2022-08-04T10:29:26.277Z,45.20
2022-08-04T10:32:08.978Z,44.40
2022-08-04T10:34:42.878Z,43.60
2022-08-04T10:37:21.753Z,43.40
2022-08-04T10:40:39.367Z,42.80
2022-08-04T10:43:28.035Z,43.80
2022-08-04T10:45:58.108Z,43.60
2022-08-04T10:48:40.245Z,43.50
2022-08-04T10:51:30.324Z,43.00
2022-08-04T10:54:31.371Z,43.30
2022-08-04T10:57:08.663Z,43.20
2022-08-04T10:59:45.460Z,44.00
2022-08-04T11:02:32.732Z,43.80
2022-08-04T11:05:21.548Z,44.20
2022-08-04T11:07:52.408Z,43.50
2022-08-04T11:10:22.544Z,43.90
2022-08-04T11:12:57.653Z,44.00
2022-08-04T11:15:34.423Z,43.90
2022-08-04T11:18:07.283Z,43.50
2022-08-04T11:20:50.834Z,43.90
2022-08-04T11:23:22.346Z,44.20
2022-08-04T11:26:06.773Z,44.30
2022-08-04T11:29:04.689Z,44.00
2022-08-04T11:31:35.475Z,43.30
2022-08-04T11:34:09.601Z,42.20
2022-08-04T11:36:51.688Z,41.80
2022-08-04T11:39:35.839Z,41.50
2022-08-04T11:42:19.801Z,41.60
2022-08-04T11:45:14.916Z,41.50
2022-08-04T11:47:57.572Z,41.60
2022-08-04T11:50:38.367Z,42.20
2022-08-04T11:53:06.696Z,42.50
2022-08-04T11:56:07.155Z,41.50
2022-08-04T11:58:22.384Z,41.10
2022-08-04T12:01:06.171Z,40.90
2022-08-04T12:03:37.785Z,40.40
2022-08-04T12:06:26.995Z,39.80
2022-08-04T12:09:06.695Z,39.50
2022-08-04T12:12:14.330Z,39.90
2022-08-04T12:14:55.588Z,39.80
2022-08-04T12:17:37.085Z,39.40
2022-08-04T12:20:31.784Z,39.10
2022-08-04T12:23:15.526Z,39.10
2022-08-04T12:25:48.049Z,39.30
2022-08-04T12:28:52.448Z,38.80
2022-08-04T12:31:45.185Z,38.50
2022-08-04T12:34:43.513Z,38.80
2022-08-04T12:37:21.939Z,38.70
2022-08-04T12:40:28.457Z,38.50
2022-08-04T12:42:59.543Z,38.40
2022-08-04T12:45:27.410Z,38.60
2022-08-04T12:47:57.956Z,37.90
2022-08-04T12:50:25.474Z,38.10
2022-08-04T12:53:02.031Z,38.40
2022-08-04T12:55:31.900Z,38.60
2022-08-04T12:58:01.369Z,38.50
2022-08-04T13:00:41.288Z,38.10
2022-08-04T13:03:15.546Z,37.70
2022-08-04T13:05:43.599Z,37.90
2022-08-04T13:08:15.312Z,38.00
2022-08-04T13:10:45.842Z,38.20
2022-08-04T13:13:16.683Z,38.00
2022-08-04T13:15:47.390Z,37.50
2022-08-04T13:18:28.939Z,37.70
2022-08-04T13:21:08.488Z,37.90
2022-08-04T13:24:19.796Z,37.80
2022-08-04T13:27:03.365Z,37.40
2022-08-04T13:29:59.805Z,37.20
2022-08-04T13:32:31.617Z,37.50
2022-08-04T13:35:01.486Z,37.20
2022-08-04T13:37:35.991Z,37.10
2022-08-04T13:40:06.274Z,37.20
2022-08-04T13:42:37.052Z,37.10
2022-08-04T13:45:06.224Z,37.20
2022-08-04T13:47:35.672Z,37.30
2022-08-04T13:50:27.116Z,37.20
2022-08-04T13:52:55.951Z,37.20
2022-08-04T13:55:31.998Z,37.30
2022-08-04T13:58:04.265Z,37.20
2022-08-04T14:01:02.024Z,37.30
2022-08-04T14:03:53.353Z,37.30
2022-08-04T14:06:36.504Z,37.20
2022-08-04T14:09:13.081Z,37.30
2022-08-04T14:12:09.112Z,37.50
2022-08-04T14:14:44.072Z,37.60
2022-08-04T14:17:20.338Z,37.60
2022-08-04T14:19:50.301Z,37.40
2022-08-04T14:22:26.347Z,37.40
2022-08-04T14:25:15.481Z,37.10
2022-08-04T14:27:51.221Z,36.70
2022-08-04T14:30:29.504Z,36.70
2022-08-04T14:32:58.741Z,36.70
2022-08-04T14:35:45.537Z,36.50
2022-08-04T14:38:13.774Z,36.70
2022-08-04T14:40:43.887Z,36.80
2022-08-04T14:43:10.777Z,36.90
2022-08-04T14:45:55.025Z,36.90
2022-08-04T14:48:22.186Z,37.00
2022-08-04T14:50:50.555Z,36.90
2022-08-04T14:53:22.429Z,36.80
2022-08-04T14:55:54.449Z,36.70
2022-08-04T14:58:32.923Z,36.60
2022-08-04T15:01:10.448Z,36.60
2022-08-04T15:03:47.997Z,36.60
2022-08-04T15:06:21.934Z,36.40
2022-08-04T15:08:51.143Z,36.20
2022-08-04T15:11:23.428Z,36.10
2022-08-04T15:13:51.197Z,36.00
2022-08-04T15:16:18.160Z,35.70
2022-08-04T15:18:48.178Z,35.70
2022-08-04T15:21:17.462Z,35.60
2022-08-04T15:23:44.512Z,35.60
2022-08-04T15:26:16.095Z,35.70
2022-08-04T15:28:48.798Z,35.70
2022-08-04T15:32:05.773Z,35.70
2022-08-04T15:34:03.097Z,35.50
2022-08-04T15:36:56.320Z,35.30
2022-08-04T15:39:45.025Z,35.30
2022-08-04T15:42:31.772Z,35.10
2022-08-04T15:45:09.549Z,35.10
2022-08-04T15:47:36.292Z,35.10
2022-08-04T15:50:11.815Z,35.10
2022-08-04T15:53:12.213Z,35.10
2022-08-04T15:55:42.115Z,35.10
2022-08-04T15:58:14.662Z,35.10
2022-08-04T16:00:56.515Z,35.10
2022-08-04T16:04:00.470Z,35.10
2022-08-04T16:06:22.289Z,35.10
2022-08-04T16:08:57.248Z,35.10
2022-08-04T16:11:31.578Z,35.20
2022-08-04T16:13:58.847Z,35.20
2022-08-04T16:16:28.710Z,35.20
2022-08-04T16:18:55.872Z,35.10
2022-08-04T16:21:25.404Z,35.10
2022-08-04T16:24:21.852Z,35.10
2022-08-04T16:26:54.384Z,35.00
2022-08-04T16:29:41.943Z,35.00
2022-08-04T16:32:24.521Z,34.90
2022-08-04T16:35:04.362Z,34.90
2022-08-04T16:37:37.620Z,34.80
2022-08-04T16:40:34.663Z,34.80
2022-08-04T16:43:14.663Z,34.80
2022-08-04T16:45:55.486Z,34.80
2022-08-04T16:48:27.189Z,34.70
2022-08-04T16:51:06.523Z,34.60
2022-08-04T16:53:52.213Z,34.50
2022-08-04T16:56:33.648Z,34.50
2022-08-04T16:59:12.376Z,34.40
2022-08-04T17:01:51.265Z,34.30
2022-08-04T17:04:27.661Z,34.30
2022-08-04T17:07:00.236Z,34.20
2022-08-04T17:09:28.880Z,34.10
2022-08-04T17:11:57.046Z,34.00
2022-08-04T17:14:25.795Z,33.90
2022-08-04T17:16:54.400Z,33.80
2022-08-04T17:19:25.999Z,33.70
2022-08-04T17:22:05.323Z,33.70
2022-08-04T17:24:38.368Z,33.60
2022-08-04T17:28:09.789Z,33.50
2022-08-04T17:29:53.383Z,33.50
2022-08-04T17:32:21.793Z,33.40
2022-08-04T17:34:57.530Z,33.40
2022-08-04T17:37:52.237Z,33.30
2022-08-04T17:40:22.448Z,33.20
2022-08-04T17:42:50.811Z,33.00
2022-08-04T17:45:50.819Z,33.00
2022-08-04T17:48:09.059Z,32.90
2022-08-04T17:50:36.593Z,32.90
2022-08-04T17:53:11.608Z,32.80
2022-08-04T17:58:32.996Z,32.70
2022-08-04T18:01:16.605Z,32.60
2022-08-04T18:03:53.471Z,32.40
2022-08-04T18:06:23.095Z,32.20
2022-08-04T18:08:59.522Z,32.10
2022-08-04T18:11:52.897Z,31.90
2022-08-04T18:14:25.796Z,31.70
2022-08-04T18:16:55.892Z,31.50
2022-08-04T18:19:22.666Z,31.40
2022-08-04T18:21:59.763Z,31.20
2022-08-04T18:24:35.745Z,31.10
2022-08-04T18:27:17.776Z,30.90
2022-08-04T18:30:15.179Z,30.70
2022-08-04T18:32:33.231Z,30.50
2022-08-04T18:35:05.137Z,30.20
2022-08-04T18:38:05.927Z,30.00
2022-08-04T18:40:31.156Z,29.90
2022-08-04T18:43:05.784Z,29.60
2022-08-04T18:45:34.394Z,29.30
2022-08-04T18:48:14.040Z,29.10
2022-08-04T18:51:09.776Z,28.90
2022-08-04T18:53:35.334Z,28.60
2022-08-04T18:56:06.087Z,28.40
2022-08-04T18:58:42.266Z,28.20
2022-08-04T19:01:14.018Z,28.00
2022-08-04T19:03:44.113Z,27.80
2022-08-04T19:06:12.536Z,27.60
2022-08-04T19:08:42.445Z,27.50
2022-08-04T19:11:16.768Z,27.30
2022-08-04T19:13:58.521Z,27.10
2022-08-04T19:16:30.185Z,26.90
2022-08-04T19:19:02.191Z,26.80
2022-08-04T19:21:59.704Z,26.60
2022-08-04T19:24:27.672Z,26.50
2022-08-04T19:27:02.235Z,26.40
2022-08-04T19:29:37.245Z,26.30
2022-08-04T19:32:13.766Z,26.10
2022-08-04T19:34:42.717Z,25.90
2022-08-04T19:37:57.409Z,25.80
2022-08-04T19:40:05.682Z,25.70
2022-08-04T19:42:32.709Z,25.50
2022-08-04T19:44:59.442Z,25.40
2022-08-04T19:48:11.428Z,25.30
2022-08-04T19:50:13.571Z,25.20
2022-08-04T19:52:40.913Z,25.00
2022-08-04T19:55:19.039Z,24.90
2022-08-04T19:57:49.697Z,24.80
2022-08-04T20:00:26.185Z,24.70
2022-08-04T20:03:01.906Z,24.60
2022-08-04T20:05:52.652Z,24.60
2022-08-04T20:08:16.573Z,24.60
2022-08-04T20:10:51.658Z,24.50
2022-08-04T20:13:30.733Z,24.30
2022-08-04T20:18:55.878Z,24.10
2022-08-04T20:21:54.435Z,24.00
2022-08-04T20:24:37.792Z,24.00
2022-08-04T20:26:59.595Z,24.00
2022-08-04T20:29:40.259Z,23.90
2022-08-04T20:32:09.446Z,23.80
2022-08-04T20:34:36.977Z,23.70
2022-08-04T20:37:03.912Z,23.80
2022-08-04T20:39:31.142Z,23.80
2022-08-04T20:41:58.188Z,23.80
2022-08-04T20:44:25.617Z,23.70
2022-08-04T20:46:52.422Z,23.70
2022-08-04T20:49:19.160Z,23.80
2022-08-04T20:51:46.244Z,23.70
2022-08-04T20:54:23.008Z,23.60
2022-08-04T20:56:54.117Z,23.60
2022-08-04T20:59:20.899Z,23.50
2022-08-04T21:01:53.575Z,23.60
2022-08-04T21:04:34.586Z,23.50
2022-08-04T21:07:04.138Z,23.40
2022-08-04T21:09:38.199Z,23.40
2022-08-04T21:12:27.604Z,23.30
2022-08-04T21:14:56.996Z,23.20
2022-08-04T21:17:59.224Z,23.00
2022-08-04T21:20:12.824Z,22.90
2022-08-04T21:22:40.628Z,22.80
2022-08-04T21:25:15.762Z,22.80
2022-08-04T21:27:43.638Z,22.70
2022-08-04T21:30:24.152Z,22.60
2022-08-04T21:32:53.409Z,22.50
2022-08-04T21:35:36.738Z,22.40
2022-08-04T21:38:17.396Z,22.30
2022-08-04T21:40:55.596Z,22.20
2022-08-04T21:43:28.513Z,22.20
2022-08-04T21:45:56.516Z,22.10
2022-08-04T21:48:27.400Z,22.10
2022-08-04T21:50:54.772Z,22.00
2022-08-04T21:53:21.622Z,21.90
2022-08-04T21:56:04.561Z,21.90
2022-08-04T21:58:34.891Z,21.80
2022-08-04T22:01:13.143Z,21.70
2022-08-04T22:03:53.137Z,21.60
2022-08-04T22:06:21.523Z,21.60
2022-08-04T22:08:56.435Z,21.50
2022-08-04T22:14:29.356Z,21.40
2022-08-04T22:17:02.415Z,21.30
2022-08-04T22:19:40.724Z,21.20
2022-08-04T22:22:26.125Z,21.20
2022-08-04T22:24:58.334Z,21.10
2022-08-04T22:27:44.543Z,21.10
2022-08-04T22:30:17.746Z,21.00
2022-08-04T22:32:46.384Z,20.90
2022-08-04T22:35:43.661Z,20.80
2022-08-04T22:38:06.649Z,20.70
2022-08-04T22:40:36.513Z,20.60
2022-08-04T22:43:03.400Z,20.60
2022-08-04T22:45:50.069Z,20.60
2022-08-04T22:48:18.399Z,20.40
2022-08-04T22:50:45.184Z,20.40
2022-08-04T22:53:11.973Z,20.30
2022-08-04T22:56:07.543Z,20.30
2022-08-04T22:58:32.077Z,20.30
2022-08-04T23:00:58.841Z,20.40
2022-08-04T23:03:36.406Z,20.30
2022-08-04T23:06:10.776Z,20.20
2022-08-04T23:08:39.406Z,20.10
2022-08-04T23:11:10.683Z,20.10
2022-08-04T23:13:37.763Z,20.10
2022-08-04T23:16:09.938Z,20.10
2022-08-04T23:18:37.056Z,20.10
2022-08-04T23:21:10.076Z,20.00
2022-08-04T23:23:45.598Z,20.00
2022-08-04T23:26:27.458Z,19.90
2022-08-04T23:28:55.505Z,19.90
2022-08-04T23:31:22.304Z,19.90
2022-08-04T23:33:51.831Z,19.90
2022-08-04T23:36:29.397Z,19.80
2022-08-04T23:38:59.948Z,19.80
2022-08-04T23:41:55.459Z,19.60
2022-08-04T23:44:24.183Z,19.50
2022-08-04T23:47:00.782Z,19.60
2022-08-04T23:49:44.589Z,19.50
2022-08-04T23:52:28.022Z,19.50
2022-08-04T23:54:58.548Z,19.50
2022-08-04T23:58:05.142Z,19.40
